createdAt,value
2022-12-05T00:02:08.781Z,31.75
2022-12-05T00:04:37.290Z,31.65
2022-12-05T00:07:07.277Z,32.53
2022-12-05T00:09:35.483Z,41.05
2022-12-05T00:12:04.222Z,32.53
2022-12-05T00:14:32.353Z,29.88
2022-12-05T00:17:00.832Z,33.78
2022-12-05T00:19:29.126Z,28.90
2022-12-05T00:21:58.068Z,31.67
2022-12-05T00:24:27.615Z,35.10
2022-12-05T00:26:56.337Z,29.23
2022-12-05T00:29:24.455Z,32.13
2022-12-05T00:31:52.999Z,26.83
2022-12-05T00:34:21.358Z,35.25
2022-12-05T00:36:52.510Z,32.47
2022-12-05T00:39:20.739Z,31.08
2022-12-05T00:41:50.518Z,29.73
2022-12-05T00:44:18.691Z,32.97
2022-12-05T00:46:47.217Z,29.25
2022-12-05T00:49:15.351Z,25.48
2022-12-05T00:51:45.616Z,27.90
2022-12-05T00:54:16.263Z,31.50
2022-12-05T00:56:45.282Z,31.25
2022-12-05T00:59:17.794Z,30.52
2022-12-05T01:01:47.952Z,32.75
2022-12-05T01:04:19.446Z,25.50
2022-12-05T01:06:48.939Z,30.83
2022-12-05T01:09:20.269Z,28.42
2022-12-05T01:11:49.122Z,31.75
2022-12-05T01:14:21.117Z,29.40
2022-12-05T01:16:51.323Z,28.95
2022-12-05T01:19:21.415Z,27.70
2022-12-05T01:21:49.850Z,27.77
2022-12-05T01:24:19.204Z,28.80
2022-12-05T01:26:48.627Z,34.53
2022-12-05T01:29:20.342Z,30.20
2022-12-05T01:31:49.123Z,28.63
2022-12-05T01:34:18.967Z,31.50
2022-12-05T01:36:47.744Z,32.45
2022-12-05T01:39:16.464Z,35.35
2022-12-05T01:41:47.387Z,29.08
2022-12-05T01:44:53.328Z,29.75
2022-12-05T01:47:26.251Z,29.65
2022-12-05T01:49:54.743Z,27.55
2022-12-05T01:52:27.173Z,26.70
2022-12-05T01:54:58.438Z,26.60
2022-12-05T01:57:27.470Z,28.73
2022-12-05T02:00:00.338Z,24.65
2022-12-05T02:02:32.733Z,24.25
2022-12-05T02:05:04.992Z,29.73
2022-12-05T02:07:34.741Z,23.65
2022-12-05T02:12:31.342Z,22.98
2022-12-05T02:15:23.131Z,22.20
2022-12-05T02:18:04.775Z,24.73
2022-12-05T02:20:42.521Z,27.08
2022-12-05T02:23:42.655Z,23.00
2022-12-05T02:26:49.132Z,24.45
2022-12-05T02:29:46.839Z,25.88
2022-12-05T02:32:23.174Z,28.55
2022-12-05T02:34:59.692Z,22.00
2022-12-05T02:37:32.024Z,26.30
2022-12-05T02:40:06.990Z,26.85
2022-12-05T02:42:42.955Z,25.10
2022-12-05T02:45:15.475Z,24.63
2022-12-05T02:47:48.955Z,27.42
2022-12-05T02:50:22.135Z,27.33
2022-12-05T02:52:53.865Z,26.75
2022-12-05T02:55:24.655Z,27.45
2022-12-05T02:57:59.117Z,31.27
2022-12-05T03:00:27.634Z,27.67
2022-12-05T03:02:59.823Z,28.30
2022-12-05T03:05:34.731Z,27.17
2022-12-05T03:08:06.004Z,30.00
2022-12-05T03:10:35.958Z,29.20
2022-12-05T03:15:40.217Z,29.70
2022-12-05T03:18:15.427Z,23.17
2022-12-05T03:20:49.647Z,27.40
2022-12-05T03:23:26.148Z,25.80
2022-12-05T03:26:01.368Z,28.05
2022-12-05T03:28:37.861Z,29.58
2022-12-05T03:31:39.611Z,26.75
2022-12-05T03:34:15.687Z,30.38
2022-12-05T03:36:49.953Z,33.13
2022-12-05T03:39:24.245Z,31.85
2022-12-05T03:42:01.486Z,30.25
2022-12-05T03:44:35.961Z,28.65
2022-12-05T03:47:08.453Z,29.42
2022-12-05T03:49:41.770Z,24.63
2022-12-05T03:52:15.840Z,24.48
2022-12-05T03:54:48.371Z,25.42
2022-12-05T03:57:23.572Z,27.95
2022-12-05T03:59:56.915Z,30.35
2022-12-05T04:02:30.696Z,26.02
2022-12-05T04:05:05.442Z,31.30
2022-12-05T04:07:36.975Z,33.17
2022-12-05T04:10:09.926Z,35.10
2022-12-05T04:12:41.399Z,34.63
2022-12-05T04:15:16.087Z,36.47
2022-12-05T04:17:53.500Z,36.28
2022-12-05T04:20:46.739Z,33.72
2022-12-05T04:23:15.687Z,31.92
2022-12-05T04:25:55.234Z,29.88
2022-12-05T04:28:34.073Z,34.63
2022-12-05T04:31:06.585Z,28.50
2022-12-05T04:33:42.744Z,25.27
2022-12-05T04:36:17.006Z,29.25
2022-12-05T04:38:51.850Z,24.98
2022-12-05T04:41:24.809Z,31.58
2022-12-05T04:43:57.155Z,25.00
2022-12-05T04:46:26.641Z,26.58
2022-12-05T04:48:59.492Z,29.83
2022-12-05T04:51:32.586Z,29.58
2022-12-05T04:54:05.554Z,25.05
2022-12-05T04:56:38.016Z,32.60
2022-12-05T04:59:06.775Z,29.10
2022-12-05T05:01:41.028Z,25.23
2022-12-05T05:04:13.715Z,22.50
2022-12-05T05:06:43.892Z,25.52
2022-12-05T05:09:12.613Z,22.63
2022-12-05T05:11:40.865Z,28.85
2022-12-05T05:14:09.521Z,26.50
2022-12-05T05:16:39.495Z,25.38
2022-12-05T05:19:09.721Z,21.50
2022-12-05T05:21:39.517Z,22.27
2022-12-05T05:24:11.808Z,22.70
2022-12-05T05:26:42.225Z,24.02
2022-12-05T05:29:12.016Z,28.30
2022-12-05T05:34:10.055Z,26.88
2022-12-05T05:39:07.849Z,26.92
2022-12-05T05:41:38.100Z,26.40
2022-12-05T05:44:07.018Z,29.42
2022-12-05T05:46:38.756Z,23.77
2022-12-05T05:49:07.280Z,22.40
2022-12-05T05:51:35.421Z,20.70
2022-12-05T05:54:03.905Z,22.67
2022-12-05T05:56:32.067Z,21.83
2022-12-05T05:59:04.847Z,22.77
2022-12-05T06:01:33.303Z,21.48
2022-12-05T06:04:01.791Z,25.15
2022-12-05T06:06:30.209Z,26.58
2022-12-05T06:08:58.720Z,25.50
2022-12-05T06:11:28.537Z,23.15
2022-12-05T06:13:58.431Z,25.40
2022-12-05T06:16:28.063Z,28.75
2022-12-05T06:18:56.482Z,30.08
2022-12-05T06:21:25.545Z,26.00
2022-12-05T06:23:54.042Z,29.15
2022-12-05T06:26:23.217Z,24.75
2022-12-05T06:28:52.304Z,25.25
2022-12-05T06:31:23.278Z,28.27
2022-12-05T06:33:53.146Z,26.88
2022-12-05T06:38:51.398Z,28.15
2022-12-05T06:41:21.631Z,29.85
2022-12-05T06:43:49.999Z,28.17
2022-12-05T06:46:18.273Z,24.00
2022-12-05T06:48:47.166Z,28.42
2022-12-05T06:51:18.079Z,28.13
2022-12-05T06:53:46.801Z,27.48
2022-12-05T06:56:17.304Z,26.10
2022-12-05T06:58:48.006Z,27.02
2022-12-05T07:01:41.943Z,27.58
2022-12-05T07:04:15.752Z,29.40
2022-12-05T07:06:50.535Z,29.52
2022-12-05T07:09:21.101Z,27.40
2022-12-05T07:11:50.363Z,26.30
2022-12-05T07:14:45.798Z,27.48
2022-12-05T07:17:08.050Z,26.95
2022-12-05T07:19:36.464Z,29.10
2022-12-05T07:22:10.747Z,26.15
2022-12-05T07:24:44.250Z,28.55
2022-12-05T07:27:12.559Z,28.52
2022-12-05T07:29:41.291Z,27.48
2022-12-05T07:32:10.426Z,30.53
2022-12-05T07:37:09.270Z,28.08
2022-12-05T07:39:37.756Z,30.98
2022-12-05T07:42:06.022Z,31.20
2022-12-05T07:44:35.015Z,30.05
2022-12-05T07:47:03.182Z,32.40
2022-12-05T07:49:31.645Z,31.50
2022-12-05T07:51:59.745Z,34.15
2022-12-05T07:54:29.589Z,32.35
2022-12-05T07:56:57.682Z,30.17
2022-12-05T07:59:26.199Z,26.20
2022-12-05T08:01:54.371Z,27.40
2022-12-05T08:04:22.798Z,26.60
2022-12-05T08:06:51.519Z,32.40
2022-12-05T08:09:19.932Z,31.77
2022-12-05T08:11:52.531Z,28.63
2022-12-05T08:14:21.815Z,31.38
2022-12-05T08:16:49.995Z,31.13
2022-12-05T08:19:18.496Z,35.13
2022-12-05T08:21:46.660Z,23.50
2022-12-05T08:24:15.655Z,29.83
2022-12-05T08:26:43.762Z,28.67
2022-12-05T08:29:16.420Z,30.20
2022-12-05T08:31:47.297Z,34.15
2022-12-05T08:34:16.620Z,24.48
2022-12-05T08:36:45.169Z,29.98
2022-12-05T08:39:16.182Z,28.98
2022-12-05T08:41:44.904Z,26.95
2022-12-05T08:44:17.209Z,32.03
2022-12-05T08:46:47.350Z,27.73
2022-12-05T08:49:16.345Z,31.98
2022-12-05T08:51:44.982Z,30.80
2022-12-05T08:54:14.324Z,35.05
2022-12-05T08:56:42.532Z,33.40
2022-12-05T08:59:11.010Z,33.40
2022-12-05T09:01:42.355Z,35.67
2022-12-05T09:04:12.349Z,34.70
2022-12-05T09:06:41.815Z,37.35
2022-12-05T09:09:11.994Z,32.88
2022-12-05T09:11:46.403Z,33.13
2022-12-05T09:14:15.262Z,34.13
2022-12-05T09:16:46.448Z,33.17
2022-12-05T09:19:16.780Z,35.05
2022-12-05T09:21:45.366Z,35.05
2022-12-05T09:24:15.232Z,37.40
2022-12-05T09:26:43.557Z,34.92
2022-12-05T09:29:16.631Z,33.35
2022-12-05T09:31:48.736Z,30.75
2022-12-05T09:34:18.508Z,31.63
2022-12-05T09:36:49.844Z,34.33
2022-12-05T09:39:18.889Z,31.17
2022-12-05T09:42:09.163Z,32.38
2022-12-05T09:44:45.729Z,32.30
2022-12-05T09:47:35.939Z,33.28
2022-12-05T09:50:15.834Z,34.92
2022-12-05T09:52:50.754Z,35.47
2022-12-05T09:55:21.784Z,37.67
2022-12-05T09:57:53.780Z,34.65
2022-12-05T10:00:22.455Z,33.38
2022-12-05T10:03:00.530Z,32.47
2022-12-05T10:05:37.348Z,32.30
2022-12-05T10:08:15.159Z,26.10
2022-12-05T10:10:57.755Z,36.70
2022-12-05T10:13:40.646Z,37.40
2022-12-05T10:16:14.836Z,36.85
2022-12-05T10:18:48.251Z,33.58
2022-12-05T10:21:21.302Z,31.88
2022-12-05T10:23:59.490Z,37.28
2022-12-05T10:26:31.997Z,36.00
2022-12-05T10:29:10.678Z,34.10
2022-12-05T10:31:42.395Z,31.42
2022-12-05T10:34:19.089Z,33.40
2022-12-05T10:37:06.769Z,34.45
2022-12-05T10:39:35.119Z,36.70
2022-12-05T10:42:04.299Z,31.02
2022-12-05T10:44:33.357Z,36.95
2022-12-05T10:47:02.947Z,38.15
2022-12-05T10:49:33.842Z,36.92
2022-12-05T10:52:03.100Z,35.35
2022-12-05T10:54:34.346Z,32.33
2022-12-05T10:57:02.983Z,37.42
2022-12-05T10:59:47.567Z,33.25
2022-12-05T11:02:26.730Z,37.45
2022-12-05T11:04:58.545Z,29.25
2022-12-05T11:07:33.478Z,37.38
2022-12-05T11:10:04.157Z,43.13
2022-12-05T11:12:39.837Z,35.55
2022-12-05T11:15:24.831Z,34.42
2022-12-05T11:17:55.921Z,40.42
2022-12-05T11:20:43.319Z,38.53
2022-12-05T11:23:28.312Z,37.92
2022-12-05T11:25:58.337Z,37.70
2022-12-05T11:28:36.199Z,37.65
2022-12-05T11:31:06.844Z,34.58
2022-12-05T11:33:36.995Z,31.60
2022-12-05T11:36:14.556Z,38.25
2022-12-05T11:38:43.568Z,33.92
2022-12-05T11:41:35.116Z,36.58
2022-12-05T11:44:23.191Z,36.60
2022-12-05T11:47:01.121Z,40.17
2022-12-05T11:49:59.003Z,37.05
2022-12-05T11:52:40.906Z,32.35
2022-12-05T11:55:17.991Z,36.95
2022-12-05T11:58:21.325Z,39.03
2022-12-05T12:01:00.652Z,37.65
2022-12-05T12:03:57.176Z,39.70
2022-12-05T12:06:30.960Z,38.85
2022-12-05T12:09:35.960Z,38.75
2022-12-05T12:12:16.475Z,35.55
2022-12-05T12:14:51.560Z,39.35
2022-12-05T12:17:27.851Z,38.88
2022-12-05T12:20:14.877Z,39.00
2022-12-05T12:22:57.682Z,40.20
2022-12-05T12:25:36.954Z,43.40
2022-12-05T12:28:22.658Z,45.42
2022-12-05T12:31:07.474Z,40.55
2022-12-05T12:33:44.456Z,41.10
2022-12-05T12:36:19.951Z,46.60
2022-12-05T12:39:15.935Z,44.25
2022-12-05T12:41:58.329Z,48.13
2022-12-05T12:45:01.737Z,47.10
2022-12-05T12:47:40.294Z,43.90
2022-12-05T12:50:17.532Z,43.92
2022-12-05T12:53:06.921Z,45.88
2022-12-05T12:55:44.069Z,44.88
2022-12-05T12:58:25.094Z,47.38
2022-12-05T13:01:04.036Z,40.53
2022-12-05T13:03:39.068Z,42.97
2022-12-05T13:06:14.645Z,39.75
2022-12-05T13:08:49.086Z,43.05
2022-12-05T13:11:19.838Z,40.90
2022-12-05T13:13:54.369Z,46.33
2022-12-05T13:16:26.867Z,53.72
2022-12-05T13:18:56.396Z,46.78
2022-12-05T13:21:27.032Z,45.13
2022-12-05T13:23:59.392Z,42.78
2022-12-05T13:26:28.591Z,41.22
2022-12-05T13:29:00.542Z,40.33
2022-12-05T13:31:42.004Z,43.63
2022-12-05T13:34:46.526Z,45.85
2022-12-05T13:37:39.178Z,44.33
2022-12-05T13:40:37.891Z,48.67
2022-12-05T13:43:07.136Z,43.53
2022-12-05T13:45:37.363Z,44.83
2022-12-05T13:48:15.589Z,48.65
2022-12-05T13:50:50.172Z,45.55
2022-12-05T13:53:30.785Z,41.53
2022-12-05T13:56:01.959Z,43.70
2022-12-05T13:58:45.801Z,36.15
2022-12-05T14:01:53.737Z,38.75
2022-12-05T14:04:51.956Z,37.67
2022-12-05T14:07:41.914Z,38.03
2022-12-05T14:10:14.274Z,48.08
2022-12-05T14:12:54.295Z,40.70
2022-12-05T14:15:34.993Z,43.67
2022-12-05T14:18:15.118Z,46.30
2022-12-05T14:21:09.214Z,42.80
2022-12-05T14:24:05.096Z,38.42
2022-12-05T14:26:52.707Z,44.05
2022-12-05T14:29:35.518Z,41.55
2022-12-05T14:32:16.073Z,40.33
2022-12-05T14:34:56.989Z,41.28
2022-12-05T14:37:29.401Z,39.15
2022-12-05T14:40:00.232Z,42.70
2022-12-05T14:42:38.549Z,44.30
2022-12-05T14:45:26.485Z,37.83
2022-12-05T14:47:57.802Z,45.85
2022-12-05T14:50:43.516Z,43.92
2022-12-05T14:53:35.186Z,46.92
2022-12-05T14:56:17.356Z,47.20
2022-12-05T14:58:51.650Z,44.92
2022-12-05T15:01:23.712Z,42.00
2022-12-05T15:04:08.197Z,44.13
2022-12-05T15:06:48.007Z,38.38
2022-12-05T15:09:38.021Z,41.55
2022-12-05T15:12:13.465Z,43.80
2022-12-05T15:14:49.204Z,43.75
2022-12-05T15:17:23.964Z,42.55
2022-12-05T15:19:57.674Z,38.33
2022-12-05T15:22:29.375Z,43.95
2022-12-05T15:24:59.597Z,46.38
2022-12-05T15:27:28.384Z,53.03
2022-12-05T15:29:57.480Z,46.00
2022-12-05T15:32:28.682Z,45.63
2022-12-05T15:35:05.084Z,42.75
2022-12-05T15:37:46.164Z,46.97
2022-12-05T15:40:17.987Z,45.03
2022-12-05T15:42:48.217Z,48.17
2022-12-05T15:45:21.867Z,42.33
2022-12-05T15:47:51.995Z,44.42
2022-12-05T15:50:27.986Z,42.47
2022-12-05T15:53:00.808Z,51.42
2022-12-05T15:55:35.224Z,47.20
2022-12-05T15:58:13.098Z,50.50
2022-12-05T16:00:47.196Z,56.05
2022-12-05T16:03:21.440Z,72.35
2022-12-05T16:05:54.342Z,49.10
2022-12-05T16:08:25.983Z,44.65
2022-12-05T16:10:54.918Z,53.05
2022-12-05T16:13:26.920Z,65.22
2022-12-05T16:15:56.276Z,46.80
2022-12-05T16:18:28.424Z,45.67
2022-12-05T16:20:57.603Z,49.88
2022-12-05T16:23:30.466Z,49.63
2022-12-05T16:26:22.004Z,44.25
2022-12-05T16:28:59.134Z,47.92
2022-12-05T16:31:28.110Z,47.60
2022-12-05T16:34:04.848Z,45.90
2022-12-05T16:36:34.217Z,42.42
2022-12-05T16:39:07.723Z,43.05
2022-12-05T16:41:40.521Z,50.10
2022-12-05T16:44:58.080Z,50.15
2022-12-05T16:47:47.971Z,53.20
2022-12-05T16:52:52.304Z,45.35
2022-12-05T16:55:22.242Z,51.03
2022-12-05T16:57:50.785Z,57.67
2022-12-05T17:00:19.734Z,48.20
2022-12-05T17:02:48.183Z,51.35
2022-12-05T17:05:17.925Z,51.42
2022-12-05T17:07:46.405Z,57.28
2022-12-05T17:10:15.779Z,57.20
2022-12-05T17:12:47.845Z,52.20
2022-12-05T17:15:18.509Z,56.08
2022-12-05T17:17:47.762Z,54.15
2022-12-05T17:20:15.851Z,62.25
2022-12-05T17:22:44.225Z,63.28
2022-12-05T17:25:22.045Z,66.68
2022-12-05T17:27:51.825Z,59.72
2022-12-05T17:32:48.415Z,53.15
2022-12-05T17:35:18.022Z,53.88
2022-12-05T17:37:46.469Z,65.10
2022-12-05T17:40:15.696Z,66.55
2022-12-05T17:45:16.581Z,59.70
2022-12-05T17:47:46.715Z,54.33
2022-12-05T17:50:18.211Z,67.13
2022-12-05T17:52:46.913Z,56.92
2022-12-05T17:55:19.504Z,59.50
2022-12-05T17:57:49.069Z,53.42
2022-12-05T18:00:21.041Z,55.80
2022-12-05T18:02:50.121Z,57.65
2022-12-05T18:05:19.094Z,58.08
2022-12-05T18:07:48.648Z,52.45
2022-12-05T18:10:19.183Z,50.85
2022-12-05T18:12:48.529Z,47.58
2022-12-05T18:15:18.797Z,53.03
2022-12-05T18:17:47.177Z,49.60
2022-12-05T18:20:16.882Z,53.63
2022-12-05T18:22:45.418Z,51.63
2022-12-05T18:25:17.154Z,53.83
2022-12-05T18:27:45.728Z,65.55
2022-12-05T18:30:14.651Z,60.33
2022-12-05T18:32:44.703Z,60.83
2022-12-05T18:35:13.294Z,57.78
2022-12-05T18:37:41.908Z,60.97
2022-12-05T18:40:15.339Z,64.70
2022-12-05T18:42:43.822Z,70.93
2022-12-05T18:45:12.675Z,58.67
2022-12-05T18:47:46.351Z,69.50
2022-12-05T18:50:15.029Z,61.42
2022-12-05T18:52:43.793Z,71.05
2022-12-05T18:55:17.625Z,74.25
2022-12-05T18:57:47.118Z,87.13
2022-12-05T19:00:17.681Z,91.47
2022-12-05T19:02:50.427Z,115.47
2022-12-05T19:05:20.824Z,101.80
2022-12-05T19:07:49.316Z,83.43
2022-12-05T19:10:17.581Z,86.47
2022-12-05T19:12:46.169Z,83.10
2022-12-05T19:15:14.319Z,79.07
2022-12-05T19:17:42.895Z,80.73
2022-12-05T19:20:15.875Z,80.47
2022-12-05T19:22:44.190Z,79.88
2022-12-05T19:25:12.358Z,74.60
2022-12-05T19:27:40.944Z,75.22
2022-12-05T19:30:10.758Z,68.03
2022-12-05T19:32:40.591Z,81.75
2022-12-05T19:35:15.141Z,85.82
2022-12-05T19:37:44.903Z,77.07
2022-12-05T19:42:41.640Z,75.00
2022-12-05T19:45:16.379Z,76.40
2022-12-05T19:47:46.505Z,74.10
2022-12-05T19:50:14.652Z,81.55
2022-12-05T19:52:44.507Z,66.35
2022-12-05T19:55:13.750Z,82.57
2022-12-05T19:57:43.377Z,91.45
2022-12-05T20:00:12.521Z,85.30
2022-12-05T20:05:11.109Z,76.00
2022-12-05T20:07:39.664Z,69.55
2022-12-05T20:10:10.528Z,86.88
2022-12-05T20:12:39.485Z,87.78
2022-12-05T20:15:10.457Z,86.53
2022-12-05T20:17:38.881Z,91.32
2022-12-05T20:20:10.949Z,94.30
2022-12-05T20:22:39.305Z,84.40
2022-12-05T20:25:09.576Z,79.10
2022-12-05T20:27:38.373Z,82.85
2022-12-05T20:30:08.803Z,87.03
2022-12-05T20:32:37.288Z,89.40
2022-12-05T20:35:08.466Z,84.10
2022-12-05T20:37:36.871Z,81.28
2022-12-05T20:40:06.017Z,72.18
2022-12-05T20:42:36.016Z,78.13
2022-12-05T20:45:04.396Z,74.47
2022-12-05T20:47:32.781Z,64.50
2022-12-05T20:50:01.328Z,65.32
2022-12-05T20:52:31.084Z,55.88
2022-12-05T20:54:59.346Z,68.82
2022-12-05T20:57:28.105Z,71.77
2022-12-05T20:59:58.426Z,70.63
2022-12-05T21:02:27.261Z,69.13
2022-12-05T21:04:56.141Z,69.53
2022-12-05T21:07:24.610Z,72.50
2022-12-05T21:09:52.668Z,74.57
2022-12-05T21:12:21.596Z,67.85
2022-12-05T21:14:49.737Z,65.82
2022-12-05T21:17:19.581Z,76.47
2022-12-05T21:22:16.103Z,74.53
2022-12-05T21:24:44.647Z,81.03
2022-12-05T21:27:13.066Z,84.75
2022-12-05T21:29:41.331Z,83.05
2022-12-05T21:32:10.418Z,75.50
2022-12-05T21:34:42.702Z,81.57
2022-12-05T21:37:11.137Z,80.38
2022-12-05T21:39:39.795Z,88.70
2022-12-05T21:42:08.527Z,93.82
2022-12-05T21:44:36.712Z,85.17
2022-12-05T21:47:05.390Z,85.38
2022-12-05T21:49:33.761Z,85.13
2022-12-05T21:52:03.685Z,92.07
2022-12-05T21:54:31.894Z,79.72
2022-12-05T21:57:00.830Z,84.00
2022-12-05T21:59:32.653Z,83.55
2022-12-05T22:02:02.363Z,88.97
2022-12-05T22:04:31.213Z,72.30
2022-12-05T22:07:00.989Z,75.15
2022-12-05T22:09:30.629Z,77.45
2022-12-05T22:11:59.065Z,77.57
2022-12-05T22:14:27.174Z,92.40
2022-12-05T22:16:55.609Z,83.15
2022-12-05T22:19:23.695Z,75.60
2022-12-05T22:21:52.234Z,87.55
2022-12-05T22:24:20.321Z,85.55
2022-12-05T22:26:52.973Z,81.33
2022-12-05T22:29:21.021Z,83.05
2022-12-05T22:31:49.479Z,73.40
2022-12-05T22:34:17.930Z,72.22
2022-12-05T22:36:46.325Z,79.38
2022-12-05T22:39:14.581Z,77.30
2022-12-05T22:41:42.993Z,80.83
2022-12-05T22:44:12.460Z,82.90
2022-12-05T22:46:40.960Z,79.35
2022-12-05T22:49:09.215Z,81.53
2022-12-05T22:51:37.664Z,81.57
2022-12-05T22:54:06.076Z,73.28
2022-12-05T22:56:34.712Z,78.43
2022-12-05T22:59:09.191Z,73.10
2022-12-05T23:01:41.795Z,73.63
2022-12-05T23:04:12.700Z,76.30
2022-12-05T23:06:41.238Z,75.90
2022-12-05T23:09:11.327Z,79.78
2022-12-05T23:11:40.112Z,67.03
2022-12-05T23:14:08.373Z,80.63
2022-12-05T23:16:36.907Z,74.50
2022-12-05T23:19:08.299Z,72.97
2022-12-05T23:21:38.459Z,65.50
2022-12-05T23:24:09.218Z,74.70
2022-12-05T23:26:41.762Z,76.57
2022-12-05T23:29:12.057Z,72.53
2022-12-05T23:31:41.567Z,84.70
2022-12-05T23:34:11.268Z,63.78
2022-12-05T23:36:40.344Z,70.55
2022-12-05T23:39:08.584Z,87.43
2022-12-05T23:41:37.014Z,78.50
2022-12-05T23:44:05.489Z,77.55
2022-12-05T23:46:34.027Z,79.93
2022-12-05T23:49:02.188Z,79.63
2022-12-05T23:51:32.312Z,75.50
2022-12-05T23:54:02.861Z,86.90
2022-12-05T23:56:33.354Z,76.75
2022-12-05T23:59:02.727Z,73.03
